createdAt,value
2023-02-05T00:04:53.431Z,3.20
2023-02-05T00:11:35.863Z,3.20
2023-02-05T00:18:18.154Z,3.30
2023-02-05T00:25:00.491Z,3.50
2023-02-05T00:31:43.034Z,3.50
2023-02-05T00:38:25.409Z,3.50
2023-02-05T00:45:08.297Z,3.60
2023-02-05T00:51:50.611Z,3.60
2023-02-05T00:58:33.809Z,3.60
2023-02-05T01:05:16.189Z,3.50
2023-02-05T01:11:59.582Z,3.50
2023-02-05T01:18:43.293Z,3.70
2023-02-05T01:25:25.667Z,3.90
2023-02-05T01:32:07.994Z,3.90
2023-02-05T01:38:50.515Z,3.90
2023-02-05T01:45:51.034Z,3.80
2023-02-05T01:52:33.412Z,3.50
2023-02-05T01:59:25.426Z,3.80
2023-02-05T02:06:07.970Z,3.80
2023-02-05T02:12:52.123Z,3.90
2023-02-05T02:19:58.604Z,3.90
2023-02-05T02:27:14.570Z,3.80
2023-02-05T02:34:04.979Z,3.70
2023-02-05T02:40:59.965Z,3.60
2023-02-05T02:47:55.105Z,3.70
2023-02-05T02:54:41.005Z,3.70
2023-02-05T03:01:28.429Z,3.80
2023-02-05T03:08:24.859Z,3.70
2023-02-05T03:15:08.949Z,3.80
2023-02-05T03:21:58.008Z,3.80
2023-02-05T03:28:40.411Z,3.90
2023-02-05T03:35:56.270Z,4.00
2023-02-05T03:43:05.375Z,4.10
2023-02-05T03:50:17.220Z,4.10
2023-02-05T03:57:18.580Z,3.90
2023-02-05T04:04:02.231Z,4.10
2023-02-05T04:10:45.280Z,3.70
2023-02-05T04:17:28.656Z,3.40
2023-02-05T04:24:11.212Z,3.30
2023-02-05T04:30:53.992Z,3.20
2023-02-05T04:37:36.434Z,3.20
2023-02-05T04:44:19.268Z,3.20
2023-02-05T04:51:06.598Z,3.20
2023-02-05T04:57:50.763Z,3.20
2023-02-05T05:04:34.079Z,3.00
2023-02-05T05:11:18.971Z,2.80
2023-02-05T05:18:01.393Z,2.80
2023-02-05T05:24:43.676Z,2.80
2023-02-05T05:31:25.977Z,2.70
2023-02-05T05:38:08.682Z,2.80
2023-02-05T05:44:52.084Z,3.10
2023-02-05T05:51:34.513Z,3.20
2023-02-05T05:58:16.816Z,3.30
2023-02-05T06:04:59.270Z,3.20
2023-02-05T06:11:41.573Z,3.10
2023-02-05T06:18:24.101Z,3.30
2023-02-05T06:25:07.456Z,3.40
2023-02-05T06:31:50.040Z,3.20
2023-02-05T06:38:32.406Z,3.10
2023-02-05T06:45:15.116Z,3.10
2023-02-05T06:51:57.463Z,3.00
2023-02-05T06:58:39.784Z,3.10
2023-02-05T07:05:22.096Z,3.30
2023-02-05T07:12:04.765Z,3.40
2023-02-05T07:18:47.171Z,3.40
2023-02-05T07:25:32.825Z,3.60
2023-02-05T07:32:15.307Z,3.60
2023-02-05T07:38:57.600Z,3.60
2023-02-05T07:45:39.880Z,3.50
2023-02-05T07:52:22.246Z,3.70
2023-02-05T07:59:04.611Z,3.60
2023-02-05T08:05:46.868Z,3.60
2023-02-05T08:12:29.174Z,3.70
2023-02-05T08:19:16.532Z,3.50
2023-02-05T08:25:59.417Z,3.80
2023-02-05T08:32:41.768Z,3.90
2023-02-05T08:39:26.005Z,4.10
2023-02-05T08:46:09.068Z,4.20
2023-02-05T08:52:51.583Z,4.30
2023-02-05T08:59:34.220Z,4.30
2023-02-05T09:06:16.642Z,4.40
2023-02-05T09:12:58.942Z,4.50
2023-02-05T09:19:41.685Z,4.60
2023-02-05T09:26:25.335Z,4.60
2023-02-05T09:33:08.692Z,4.70
2023-02-05T09:47:16.220Z,4.10
2023-02-05T09:54:04.448Z,4.00
2023-02-05T10:01:06.962Z,4.20
2023-02-05T10:08:02.925Z,4.40
2023-02-05T10:14:56.397Z,4.50
2023-02-05T10:22:11.608Z,4.50
2023-02-05T10:29:12.995Z,4.20
2023-02-05T10:36:04.974Z,4.20
2023-02-05T10:42:57.058Z,4.40
2023-02-05T10:50:03.567Z,4.50
2023-02-05T10:56:46.178Z,4.70
2023-02-05T11:03:28.791Z,5.00
2023-02-05T11:10:29.011Z,5.20
2023-02-05T11:17:17.338Z,5.00
2023-02-05T11:23:59.818Z,5.10
2023-02-05T11:30:50.768Z,5.00
2023-02-05T11:37:33.754Z,5.00
2023-02-05T11:44:25.938Z,5.10
2023-02-05T11:51:11.438Z,5.50
2023-02-05T11:58:06.221Z,5.40
2023-02-05T12:04:50.803Z,5.80
2023-02-05T12:12:00.918Z,6.10
2023-02-05T12:19:23.118Z,6.30
2023-02-05T12:26:20.709Z,6.40
2023-02-05T12:33:32.696Z,6.40
2023-02-05T12:40:30.320Z,6.00
2023-02-05T12:47:30.749Z,5.70
2023-02-05T12:54:32.636Z,5.80
2023-02-05T13:01:21.427Z,5.90
2023-02-05T13:08:29.703Z,6.10
2023-02-05T13:15:25.425Z,6.10
2023-02-05T13:22:50.084Z,6.10
2023-02-05T13:29:43.687Z,6.20
2023-02-05T13:36:28.938Z,6.00
2023-02-05T13:43:48.719Z,5.90
2023-02-05T13:50:49.012Z,5.90
2023-02-05T13:57:50.116Z,5.90
2023-02-05T14:04:48.731Z,5.90
2023-02-05T14:11:51.931Z,5.90
2023-02-05T14:18:40.521Z,5.60
2023-02-05T14:25:47.741Z,5.60
2023-02-05T14:32:30.009Z,5.50
2023-02-05T14:39:24.913Z,5.60
2023-02-05T14:46:29.233Z,5.50
2023-02-05T14:53:26.645Z,5.40
2023-02-05T15:00:25.701Z,5.40
2023-02-05T15:07:12.999Z,5.40
2023-02-05T15:14:24.628Z,5.20
2023-02-05T15:21:11.613Z,5.30
2023-02-05T15:27:59.555Z,5.40
2023-02-05T15:34:52.478Z,5.40
2023-02-05T15:41:36.207Z,5.30
2023-02-05T15:48:26.216Z,5.30
2023-02-05T15:55:13.247Z,5.20
2023-02-05T16:02:21.424Z,5.10
2023-02-05T16:09:19.128Z,5.00
2023-02-05T16:16:15.031Z,5.00
2023-02-05T16:23:01.805Z,4.90
2023-02-05T16:29:55.109Z,4.80
2023-02-05T16:36:39.772Z,4.80
2023-02-05T16:43:25.130Z,4.80
2023-02-05T16:50:37.481Z,4.80
2023-02-05T16:57:37.106Z,4.90
2023-02-05T17:04:31.235Z,4.90
2023-02-05T17:11:32.172Z,5.00
2023-02-05T17:18:25.849Z,5.00
2023-02-05T17:25:08.203Z,4.90
2023-02-05T17:31:50.565Z,4.90
2023-02-05T17:38:32.858Z,4.90
2023-02-05T17:45:30.974Z,4.90
2023-02-05T17:52:15.299Z,5.00
2023-02-05T17:58:58.296Z,5.00
2023-02-05T18:05:40.849Z,5.10
2023-02-05T18:12:23.187Z,5.10
2023-02-05T18:19:05.727Z,4.90
2023-02-05T18:25:48.074Z,4.70
2023-02-05T18:32:30.580Z,4.40
2023-02-05T18:39:12.881Z,4.30
2023-02-05T18:45:55.214Z,4.20
2023-02-05T18:52:37.600Z,4.20
2023-02-05T18:59:21.323Z,4.20
2023-02-05T19:06:08.385Z,4.10
2023-02-05T19:12:51.027Z,4.20
2023-02-05T19:19:33.991Z,4.00
2023-02-05T19:26:18.273Z,4.00
2023-02-05T19:33:00.562Z,4.00
2023-02-05T19:39:42.872Z,3.90
2023-02-05T19:46:28.452Z,4.00
2023-02-05T19:53:11.098Z,4.10
2023-02-05T19:59:53.397Z,4.20
2023-02-05T20:06:36.444Z,4.30
2023-02-05T20:13:18.767Z,4.10
2023-02-05T20:20:12.283Z,3.90
2023-02-05T20:26:58.421Z,3.90
2023-02-05T20:33:40.838Z,3.80
2023-02-05T20:40:23.156Z,3.80
2023-02-05T20:47:12.148Z,3.70
2023-02-05T20:53:58.471Z,3.80
2023-02-05T21:00:41.019Z,3.90
2023-02-05T21:07:29.255Z,3.90
2023-02-05T21:14:11.912Z,3.90
2023-02-05T21:20:54.701Z,3.80
2023-02-05T21:27:37.259Z,3.80
2023-02-05T21:34:22.768Z,3.70
2023-02-05T21:41:13.434Z,3.80
2023-02-05T21:47:55.698Z,3.80
2023-02-05T21:54:38.030Z,3.70
2023-02-05T22:01:31.796Z,3.60
2023-02-05T22:08:14.104Z,3.70
2023-02-05T22:14:56.410Z,3.80
2023-02-05T22:21:40.928Z,3.80
2023-02-05T22:28:23.206Z,3.60
2023-02-05T22:35:05.792Z,3.60
2023-02-05T22:41:48.086Z,3.50
2023-02-05T22:48:30.420Z,3.60
2023-02-05T22:55:12.769Z,3.40
2023-02-05T23:01:55.133Z,3.30
2023-02-05T23:08:37.945Z,3.30
2023-02-05T23:15:20.269Z,3.40
2023-02-05T23:22:02.540Z,3.30
2023-02-05T23:28:45.178Z,3.40
2023-02-05T23:35:28.180Z,3.40
2023-02-05T23:42:11.746Z,3.30
2023-02-05T23:48:54.033Z,3.40
2023-02-05T23:55:40.935Z,3.30
